Terminal Aerodrome Forecast
Issued by NWS Wilmington, OH

Current Version | Previous Version | Graphics & Text | Print | Product List | Glossary On
Versions: 1 2 3 4 5 6 7 8 9 10 11 12 13 14 15 16 17 18 19 20 21 22 23
000
FTUS41 KILN 260800 AAA
TAFILN
TAF AMD
KILN 260857Z 2609/2706 02008KT P6SM BKN040 OVC090
     FM261300 01012KT P6SM SCT040
     FM270000 36006KT P6SM SCT040=

USA.gov is the U.S. government's official web portal to all federal, state and local government web resources and services.